sensor_id;sensor_type;location;lat;lon;timestamp;P1;durP1;ratioP1;P2;durP2;ratioP2
21128;SDS011;10722;51.910;8.352;2023-04-06T00:01:40;18.63;;;8.50;;
21128;SDS011;10722;51.910;8.352;2023-04-06T00:04:26;17.07;;;8.13;;
21128;SDS011;10722;51.910;8.352;2023-04-06T00:07:12;16.50;;;8.47;;
21128;SDS011;10722;51.910;8.352;2023-04-06T00:09:57;18.77;;;8.47;;
21128;SDS011;10722;51.910;8.352;2023-04-06T00:12:43;16.97;;;8.07;;
21128;SDS011;10722;51.910;8.352;2023-04-06T00:15:28;17.30;;;8.57;;
21128;SDS011;10722;51.910;8.352;2023-04-06T00:18:13;17.73;;;8.57;;
21128;SDS011;10722;51.910;8.352;2023-04-06T00:20:59;16.97;;;8.37;;
21128;SDS011;10722;51.910;8.352;2023-04-06T00:23:44;20.17;;;8.80;;
21128;SDS011;10722;51.910;8.352;2023-04-06T00:26:30;16.13;;;8.43;;
21128;SDS011;10722;51.910;8.352;2023-04-06T00:29:15;17.37;;;8.50;;
21128;SDS011;10722;51.910;8.352;2023-04-06T00:32:00;17.43;;;8.80;;
21128;SDS011;10722;51.910;8.352;2023-04-06T00:34:46;18.53;;;8.83;;
21128;SDS011;10722;51.910;8.352;2023-04-06T00:37:31;15.83;;;8.47;;
21128;SDS011;10722;51.910;8.352;2023-04-06T00:40:17;17.93;;;8.43;;
21128;SDS011;10722;51.910;8.352;2023-04-06T00:43:02;20.57;;;8.87;;
21128;SDS011;10722;51.910;8.352;2023-04-06T00:45:48;16.57;;;8.60;;
21128;SDS011;10722;51.910;8.352;2023-04-06T00:48:33;18.57;;;8.93;;
21128;SDS011;10722;51.910;8.352;2023-04-06T00:51:18;18.17;;;8.67;;
21128;SDS011;10722;51.910;8.352;2023-04-06T00:54:04;18.57;;;8.80;;
21128;SDS011;10722;51.910;8.352;2023-04-06T00:56:49;21.60;;;9.20;;
21128;SDS011;10722;51.910;8.352;2023-04-06T00:59:34;20.27;;;9.33;;
21128;SDS011;10722;51.910;8.352;2023-04-06T01:02:20;19.10;;;9.17;;
21128;SDS011;10722;51.910;8.352;2023-04-06T01:05:05;19.80;;;9.73;;
21128;SDS011;10722;51.910;8.352;2023-04-06T01:07:51;18.17;;;9.47;;
21128;SDS011;10722;51.910;8.352;2023-04-06T01:10:36;19.30;;;9.27;;
21128;SDS011;10722;51.910;8.352;2023-04-06T01:13:22;21.97;;;10.03;;
21128;SDS011;10722;51.910;8.352;2023-04-06T01:16:07;18.83;;;9.57;;
21128;SDS011;10722;51.910;8.352;2023-04-06T01:18:52;19.47;;;9.80;;
21128;SDS011;10722;51.910;8.352;2023-04-06T01:21:38;21.00;;;9.90;;
21128;SDS011;10722;51.910;8.352;2023-04-06T01:24:24;21.93;;;10.23;;
21128;SDS011;10722;51.910;8.352;2023-04-06T01:27:09;19.30;;;9.53;;
21128;SDS011;10722;51.910;8.352;2023-04-06T01:29:55;19.37;;;9.50;;
21128;SDS011;10722;51.910;8.352;2023-04-06T01:32:40;19.40;;;9.57;;
21128;SDS011;10722;51.910;8.352;2023-04-06T01:35:26;17.20;;;9.60;;
21128;SDS011;10722;51.910;8.352;2023-04-06T01:38:12;17.80;;;10.00;;
21128;SDS011;10722;51.910;8.352;2023-04-06T01:40:57;17.50;;;9.50;;
21128;SDS011;10722;51.910;8.352;2023-04-06T01:43:43;17.83;;;9.50;;
21128;SDS011;10722;51.910;8.352;2023-04-06T01:46:29;18.87;;;10.10;;
21128;SDS011;10722;51.910;8.352;2023-04-06T01:49:14;18.70;;;9.60;;
21128;SDS011;10722;51.910;8.352;2023-04-06T01:52:00;20.23;;;10.37;;
21128;SDS011;10722;51.910;8.352;2023-04-06T01:54:45;20.27;;;9.90;;
21128;SDS011;10722;51.910;8.352;2023-04-06T01:57:31;19.10;;;9.90;;
21128;SDS011;10722;51.910;8.352;2023-04-06T02:00:16;19.20;;;10.30;;
21128;SDS011;10722;51.910;8.352;2023-04-06T02:03:01;19.30;;;9.80;;
21128;SDS011;10722;51.910;8.352;2023-04-06T02:05:47;19.13;;;9.83;;
21128;SDS011;10722;51.910;8.352;2023-04-06T02:08:32;18.63;;;10.43;;
21128;SDS011;10722;51.910;8.352;2023-04-06T02:11:17;19.10;;;10.10;;
21128;SDS011;10722;51.910;8.352;2023-04-06T02:14:03;19.53;;;9.97;;
21128;SDS011;10722;51.910;8.352;2023-04-06T02:16:48;19.73;;;9.87;;
21128;SDS011;10722;51.910;8.352;2023-04-06T02:19:34;20.03;;;10.27;;
21128;SDS011;10722;51.910;8.352;2023-04-06T02:22:19;18.73;;;9.87;;
21128;SDS011;10722;51.910;8.352;2023-04-06T02:25:04;23.20;;;10.50;;
21128;SDS011;10722;51.910;8.352;2023-04-06T02:27:50;20.90;;;10.53;;
21128;SDS011;10722;51.910;8.352;2023-04-06T02:30:35;19.10;;;10.73;;
21128;SDS011;10722;51.910;8.352;2023-04-06T02:33:21;19.23;;;10.27;;
21128;SDS011;10722;51.910;8.352;2023-04-06T02:36:06;19.33;;;10.27;;
21128;SDS011;10722;51.910;8.352;2023-04-06T02:38:52;20.57;;;10.50;;
21128;SDS011;10722;51.910;8.352;2023-04-06T02:41:37;21.40;;;11.40;;
21128;SDS011;10722;51.910;8.352;2023-04-06T02:44:23;18.13;;;9.87;;
21128;SDS011;10722;51.910;8.352;2023-04-06T02:47:08;19.23;;;10.40;;
21128;SDS011;10722;51.910;8.352;2023-04-06T02:49:54;19.13;;;10.50;;
21128;SDS011;10722;51.910;8.352;2023-04-06T02:52:39;21.20;;;11.07;;
21128;SDS011;10722;51.910;8.352;2023-04-06T02:55:25;23.00;;;12.07;;
21128;SDS011;10722;51.910;8.352;2023-04-06T02:58:10;19.80;;;11.10;;
21128;SDS011;10722;51.910;8.352;2023-04-06T03:00:56;21.23;;;11.37;;
21128;SDS011;10722;51.910;8.352;2023-04-06T03:03:41;20.10;;;11.10;;
21128;SDS011;10722;51.910;8.352;2023-04-06T03:06:27;20.57;;;11.00;;
21128;SDS011;10722;51.910;8.352;2023-04-06T03:09:12;20.87;;;11.13;;
21128;SDS011;10722;51.910;8.352;2023-04-06T03:11:57;22.33;;;11.83;;
21128;SDS011;10722;51.910;8.352;2023-04-06T03:14:42;21.10;;;11.37;;
21128;SDS011;10722;51.910;8.352;2023-04-06T03:17:27;21.33;;;11.10;;
21128;SDS011;10722;51.910;8.352;2023-04-06T03:20:12;20.97;;;11.83;;
21128;SDS011;10722;51.910;8.352;2023-04-06T03:22:58;24.77;;;12.27;;
21128;SDS011;10722;51.910;8.352;2023-04-06T03:25:43;23.53;;;12.07;;
21128;SDS011;10722;51.910;8.352;2023-04-06T03:28:29;22.80;;;11.67;;
21128;SDS011;10722;51.910;8.352;2023-04-06T03:31:14;22.43;;;11.87;;
21128;SDS011;10722;51.910;8.352;2023-04-06T03:33:59;23.03;;;12.73;;
21128;SDS011;10722;51.910;8.352;2023-04-06T03:36:44;22.57;;;12.70;;
21128;SDS011;10722;51.910;8.352;2023-04-06T03:39:32;24.40;;;12.50;;
21128;SDS011;10722;51.910;8.352;2023-04-06T03:42:17;24.10;;;11.97;;
21128;SDS011;10722;51.910;8.352;2023-04-06T03:45:03;22.37;;;11.83;;
21128;SDS011;10722;51.910;8.352;2023-04-06T03:47:48;23.30;;;12.70;;
21128;SDS011;10722;51.910;8.352;2023-04-06T03:50:33;23.17;;;12.40;;
21128;SDS011;10722;51.910;8.352;2023-04-06T03:53:19;21.07;;;12.03;;
21128;SDS011;10722;51.910;8.352;2023-04-06T03:56:04;23.57;;;12.30;;
21128;SDS011;10722;51.910;8.352;2023-04-06T03:58:50;22.93;;;11.60;;
21128;SDS011;10722;51.910;8.352;2023-04-06T04:01:35;22.60;;;11.87;;
21128;SDS011;10722;51.910;8.352;2023-04-06T04:04:21;22.93;;;11.60;;
21128;SDS011;10722;51.910;8.352;2023-04-06T04:07:06;20.00;;;11.93;;
21128;SDS011;10722;51.910;8.352;2023-04-06T04:09:52;21.83;;;11.37;;
21128;SDS011;10722;51.910;8.352;2023-04-06T04:12:37;22.00;;;11.43;;
21128;SDS011;10722;51.910;8.352;2023-04-06T04:15:23;20.33;;;11.70;;
21128;SDS011;10722;51.910;8.352;2023-04-06T04:18:08;22.10;;;11.50;;
21128;SDS011;10722;51.910;8.352;2023-04-06T04:20:54;23.30;;;11.90;;
21128;SDS011;10722;51.910;8.352;2023-04-06T04:23:39;22.53;;;11.73;;
21128;SDS011;10722;51.910;8.352;2023-04-06T04:26:24;22.93;;;11.83;;
21128;SDS011;10722;51.910;8.352;2023-04-06T04:29:09;21.13;;;11.40;;
21128;SDS011;10722;51.910;8.352;2023-04-06T04:31:55;22.50;;;11.63;;
21128;SDS011;10722;51.910;8.352;2023-04-06T04:34:40;21.20;;;12.50;;
21128;SDS011;10722;51.910;8.352;2023-04-06T04:37:26;21.70;;;11.73;;
21128;SDS011;10722;51.910;8.352;2023-04-06T04:40:11;22.83;;;12.33;;
21128;SDS011;10722;51.910;8.352;2023-04-06T04:42:57;27.53;;;12.37;;
21128;SDS011;10722;51.910;8.352;2023-04-06T04:45:42;23.33;;;12.63;;
21128;SDS011;10722;51.910;8.352;2023-04-06T04:48:28;20.67;;;12.30;;
21128;SDS011;10722;51.910;8.352;2023-04-06T04:51:13;20.40;;;11.97;;
21128;SDS011;10722;51.910;8.352;2023-04-06T04:53:58;22.87;;;12.30;;
21128;SDS011;10722;51.910;8.352;2023-04-06T04:56:43;22.47;;;12.77;;
21128;SDS011;10722;51.910;8.352;2023-04-06T04:59:29;24.47;;;13.00;;
21128;SDS011;10722;51.910;8.352;2023-04-06T05:02:14;27.03;;;13.93;;
21128;SDS011;10722;51.910;8.352;2023-04-06T05:05:00;21.90;;;12.77;;
21128;SDS011;10722;51.910;8.352;2023-04-06T05:07:45;26.40;;;12.10;;
21128;SDS011;10722;51.910;8.352;2023-04-06T05:10:31;23.13;;;12.37;;
21128;SDS011;10722;51.910;8.352;2023-04-06T05:13:16;21.33;;;11.83;;
21128;SDS011;10722;51.910;8.352;2023-04-06T05:16:01;23.53;;;12.47;;
21128;SDS011;10722;51.910;8.352;2023-04-06T05:18:47;21.47;;;12.23;;
21128;SDS011;10722;51.910;8.352;2023-04-06T05:21:33;27.40;;;13.57;;
21128;SDS011;10722;51.910;8.352;2023-04-06T05:24:18;23.37;;;12.20;;
21128;SDS011;10722;51.910;8.352;2023-04-06T05:27:03;23.73;;;12.00;;
21128;SDS011;10722;51.910;8.352;2023-04-06T05:29:49;23.07;;;12.00;;
21128;SDS011;10722;51.910;8.352;2023-04-06T05:32:34;23.50;;;12.03;;
21128;SDS011;10722;51.910;8.352;2023-04-06T05:35:19;21.53;;;11.20;;
21128;SDS011;10722;51.910;8.352;2023-04-06T05:38:07;20.57;;;11.27;;
21128;SDS011;10722;51.910;8.352;2023-04-06T05:40:53;23.17;;;11.57;;
21128;SDS011;10722;51.910;8.352;2023-04-06T05:43:38;24.03;;;11.67;;
21128;SDS011;10722;51.910;8.352;2023-04-06T05:46:23;24.03;;;11.17;;
21128;SDS011;10722;51.910;8.352;2023-04-06T05:49:08;22.87;;;11.40;;
21128;SDS011;10722;51.910;8.352;2023-04-06T05:51:54;24.60;;;12.07;;
21128;SDS011;10722;51.910;8.352;2023-04-06T05:54:39;20.47;;;11.33;;
21128;SDS011;10722;51.910;8.352;2023-04-06T05:57:25;23.30;;;11.43;;
21128;SDS011;10722;51.910;8.352;2023-04-06T06:00:10;22.13;;;11.70;;
21128;SDS011;10722;51.910;8.352;2023-04-06T06:02:56;19.93;;;11.07;;
21128;SDS011;10722;51.910;8.352;2023-04-06T06:05:42;23.50;;;12.03;;
21128;SDS011;10722;51.910;8.352;2023-04-06T06:08:27;18.57;;;10.50;;
21128;SDS011;10722;51.910;8.352;2023-04-06T06:11:13;21.17;;;10.73;;
21128;SDS011;10722;51.910;8.352;2023-04-06T06:13:58;26.30;;;11.13;;
21128;SDS011;10722;51.910;8.352;2023-04-06T06:16:43;23.33;;;10.50;;
21128;SDS011;10722;51.910;8.352;2023-04-06T06:19:29;23.33;;;10.43;;
21128;SDS011;10722;51.910;8.352;2023-04-06T06:22:15;22.23;;;10.17;;
21128;SDS011;10722;51.910;8.352;2023-04-06T06:25:00;20.10;;;10.70;;
21128;SDS011;10722;51.910;8.352;2023-04-06T06:27:45;20.73;;;11.00;;
21128;SDS011;10722;51.910;8.352;2023-04-06T06:30:31;22.20;;;10.60;;
21128;SDS011;10722;51.910;8.352;2023-04-06T06:33:16;19.67;;;10.13;;
21128;SDS011;10722;51.910;8.352;2023-04-06T06:36:02;19.67;;;9.73;;
21128;SDS011;10722;51.910;8.352;2023-04-06T06:38:47;19.97;;;10.10;;
21128;SDS011;10722;51.910;8.352;2023-04-06T06:41:32;22.47;;;9.40;;
21128;SDS011;10722;51.910;8.352;2023-04-06T06:44:17;18.90;;;9.90;;
21128;SDS011;10722;51.910;8.352;2023-04-06T06:47:03;21.83;;;10.43;;
21128;SDS011;10722;51.910;8.352;2023-04-06T06:49:48;20.43;;;10.37;;
21128;SDS011;10722;51.910;8.352;2023-04-06T06:52:34;24.47;;;10.73;;
21128;SDS011;10722;51.910;8.352;2023-04-06T06:55:19;21.97;;;10.10;;
21128;SDS011;10722;51.910;8.352;2023-04-06T06:58:06;22.40;;;9.67;;
21128;SDS011;10722;51.910;8.352;2023-04-06T07:00:55;20.63;;;9.87;;
21128;SDS011;10722;51.910;8.352;2023-04-06T07:03:41;20.23;;;9.60;;
21128;SDS011;10722;51.910;8.352;2023-04-06T07:06:26;19.27;;;9.57;;
21128;SDS011;10722;51.910;8.352;2023-04-06T07:09:12;19.73;;;10.40;;
21128;SDS011;10722;51.910;8.352;2023-04-06T07:11:57;17.67;;;9.67;;
21128;SDS011;10722;51.910;8.352;2023-04-06T07:14:42;21.33;;;9.30;;
21128;SDS011;10722;51.910;8.352;2023-04-06T07:17:28;19.67;;;9.40;;
21128;SDS011;10722;51.910;8.352;2023-04-06T07:20:13;19.60;;;9.00;;
21128;SDS011;10722;51.910;8.352;2023-04-06T07:22:59;18.57;;;9.37;;
21128;SDS011;10722;51.910;8.352;2023-04-06T07:25:44;21.30;;;10.47;;
21128;SDS011;10722;51.910;8.352;2023-04-06T07:28:29;19.17;;;9.57;;
21128;SDS011;10722;51.910;8.352;2023-04-06T07:31:15;17.77;;;8.97;;
21128;SDS011;10722;51.910;8.352;2023-04-06T07:34:01;17.90;;;8.83;;
21128;SDS011;10722;51.910;8.352;2023-04-06T07:36:46;17.77;;;8.70;;
21128;SDS011;10722;51.910;8.352;2023-04-06T07:39:31;18.48;;;8.80;;
21128;SDS011;10722;51.910;8.352;2023-04-06T07:42:18;17.95;;;9.23;;
21128;SDS011;10722;51.910;8.352;2023-04-06T07:45:03;18.00;;;8.70;;
21128;SDS011;10722;51.910;8.352;2023-04-06T07:47:49;18.77;;;9.03;;
21128;SDS011;10722;51.910;8.352;2023-04-06T07:50:35;16.77;;;8.80;;
21128;SDS011;10722;51.910;8.352;2023-04-06T07:53:20;17.88;;;9.45;;
21128;SDS011;10722;51.910;8.352;2023-04-06T07:56:05;19.00;;;9.10;;
21128;SDS011;10722;51.910;8.352;2023-04-06T07:58:51;18.02;;;9.32;;
21128;SDS011;10722;51.910;8.352;2023-04-06T08:01:38;18.73;;;9.17;;
21128;SDS011;10722;51.910;8.352;2023-04-06T08:04:23;18.67;;;8.53;;
21128;SDS011;10722;51.910;8.352;2023-04-06T08:07:09;24.35;;;8.95;;
21128;SDS011;10722;51.910;8.352;2023-04-06T08:09:55;21.00;;;9.20;;
21128;SDS011;10722;51.910;8.352;2023-04-06T08:12:40;17.88;;;8.48;;
21128;SDS011;10722;51.910;8.352;2023-04-06T08:15:26;18.65;;;8.30;;
21128;SDS011;10722;51.910;8.352;2023-04-06T08:18:12;17.03;;;8.57;;
21128;SDS011;10722;51.910;8.352;2023-04-06T08:20:58;18.35;;;8.60;;
21128;SDS011;10722;51.910;8.352;2023-04-06T08:23:43;18.57;;;8.80;;
21128;SDS011;10722;51.910;8.352;2023-04-06T08:26:29;16.37;;;8.70;;
21128;SDS011;10722;51.910;8.352;2023-04-06T08:29:14;19.75;;;8.88;;
21128;SDS011;10722;51.910;8.352;2023-04-06T08:32:00;21.17;;;7.90;;
21128;SDS011;10722;51.910;8.352;2023-04-06T08:34:46;19.88;;;8.30;;
21128;SDS011;10722;51.910;8.352;2023-04-06T08:37:31;22.25;;;9.30;;
21128;SDS011;10722;51.910;8.352;2023-04-06T08:40:17;17.90;;;9.45;;
21128;SDS011;10722;51.910;8.352;2023-04-06T08:43:02;20.15;;;9.07;;
21128;SDS011;10722;51.910;8.352;2023-04-06T08:45:51;17.58;;;8.95;;
21128;SDS011;10722;51.910;8.352;2023-04-06T08:48:37;18.73;;;8.95;;
21128;SDS011;10722;51.910;8.352;2023-04-06T08:51:25;19.05;;;8.90;;
21128;SDS011;10722;51.910;8.352;2023-04-06T08:54:11;17.42;;;8.60;;
21128;SDS011;10722;51.910;8.352;2023-04-06T08:56:56;19.00;;;9.55;;
21128;SDS011;10722;51.910;8.352;2023-04-06T08:59:42;20.52;;;9.38;;
21128;SDS011;10722;51.910;8.352;2023-04-06T09:02:27;18.08;;;9.10;;
21128;SDS011;10722;51.910;8.352;2023-04-06T09:05:13;17.77;;;9.60;;
21128;SDS011;10722;51.910;8.352;2023-04-06T09:07:58;18.83;;;9.35;;
21128;SDS011;10722;51.910;8.352;2023-04-06T09:10:44;21.15;;;9.60;;
21128;SDS011;10722;51.910;8.352;2023-04-06T09:13:29;20.50;;;9.65;;
21128;SDS011;10722;51.910;8.352;2023-04-06T09:16:15;18.73;;;9.50;;
21128;SDS011;10722;51.910;8.352;2023-04-06T09:19:03;19.90;;;9.63;;
21128;SDS011;10722;51.910;8.352;2023-04-06T09:21:48;18.27;;;9.13;;
21128;SDS011;10722;51.910;8.352;2023-04-06T09:27:58;22.20;;;10.57;;
21128;SDS011;10722;51.910;8.352;2023-04-06T09:30:48;19.70;;;9.80;;
21128;SDS011;10722;51.910;8.352;2023-04-06T09:33:33;22.45;;;9.73;;
21128;SDS011;10722;51.910;8.352;2023-04-06T09:36:32;22.08;;;10.40;;
21128;SDS011;10722;51.910;8.352;2023-04-06T09:39:22;22.60;;;10.80;;
21128;SDS011;10722;51.910;8.352;2023-04-06T09:42:08;19.65;;;10.48;;
21128;SDS011;10722;51.910;8.352;2023-04-06T09:44:54;20.60;;;10.13;;
21128;SDS011;10722;51.910;8.352;2023-04-06T09:47:40;19.48;;;10.40;;
21128;SDS011;10722;51.910;8.352;2023-04-06T09:50:28;22.13;;;10.80;;
21128;SDS011;10722;51.910;8.352;2023-04-06T09:53:14;18.73;;;9.75;;
21128;SDS011;10722;51.910;8.352;2023-04-06T09:56:01;20.98;;;11.07;;
21128;SDS011;10722;51.910;8.352;2023-04-06T09:58:47;21.73;;;11.10;;
21128;SDS011;10722;51.910;8.352;2023-04-06T10:01:38;21.38;;;11.82;;
21128;SDS011;10722;51.910;8.352;2023-04-06T10:07:15;23.63;;;11.05;;
21128;SDS011;10722;51.910;8.352;2023-04-06T10:10:02;21.88;;;11.15;;
21128;SDS011;10722;51.910;8.352;2023-04-06T10:12:48;22.08;;;11.63;;
21128;SDS011;10722;51.910;8.352;2023-04-06T10:15:34;24.33;;;11.65;;
21128;SDS011;10722;51.910;8.352;2023-04-06T10:18:19;23.38;;;12.50;;
21128;SDS011;10722;51.910;8.352;2023-04-06T10:21:06;22.00;;;11.90;;
21128;SDS011;10722;51.910;8.352;2023-04-06T10:23:57;22.83;;;11.93;;
21128;SDS011;10722;51.910;8.352;2023-04-06T10:26:56;23.10;;;11.73;;
21128;SDS011;10722;51.910;8.352;2023-04-06T10:29:46;26.23;;;13.52;;
21128;SDS011;10722;51.910;8.352;2023-04-06T10:32:36;22.75;;;12.45;;
21128;SDS011;10722;51.910;8.352;2023-04-06T10:35:23;23.25;;;12.02;;
21128;SDS011;10722;51.910;8.352;2023-04-06T10:38:08;24.80;;;12.70;;
21128;SDS011;10722;51.910;8.352;2023-04-06T10:40:54;23.20;;;12.50;;
21128;SDS011;10722;51.910;8.352;2023-04-06T10:43:55;24.83;;;13.45;;
21128;SDS011;10722;51.910;8.352;2023-04-06T10:46:41;25.63;;;13.23;;
21128;SDS011;10722;51.910;8.352;2023-04-06T10:49:37;24.52;;;13.50;;
21128;SDS011;10722;51.910;8.352;2023-04-06T10:52:22;26.77;;;13.75;;
21128;SDS011;10722;51.910;8.352;2023-04-06T10:55:08;25.48;;;13.25;;
21128;SDS011;10722;51.910;8.352;2023-04-06T10:57:54;25.52;;;13.10;;
21128;SDS011;10722;51.910;8.352;2023-04-06T11:00:46;27.45;;;12.00;;
21128;SDS011;10722;51.910;8.352;2023-04-06T11:03:42;24.17;;;12.63;;
21128;SDS011;10722;51.910;8.352;2023-04-06T11:06:35;24.67;;;12.48;;
21128;SDS011;10722;51.910;8.352;2023-04-06T11:09:24;22.67;;;12.90;;
21128;SDS011;10722;51.910;8.352;2023-04-06T11:12:19;24.52;;;12.70;;
21128;SDS011;10722;51.910;8.352;2023-04-06T11:15:11;21.90;;;11.40;;
21128;SDS011;10722;51.910;8.352;2023-04-06T11:17:57;22.63;;;12.50;;
21128;SDS011;10722;51.910;8.352;2023-04-06T11:20:47;23.13;;;12.35;;
21128;SDS011;10722;51.910;8.352;2023-04-06T11:23:32;22.92;;;11.45;;
21128;SDS011;10722;51.910;8.352;2023-04-06T11:26:18;22.30;;;11.30;;
21128;SDS011;10722;51.910;8.352;2023-04-06T11:29:03;21.70;;;12.40;;
21128;SDS011;10722;51.910;8.352;2023-04-06T11:34:36;26.10;;;13.18;;
21128;SDS011;10722;51.910;8.352;2023-04-06T11:37:22;24.58;;;12.68;;
21128;SDS011;10722;51.910;8.352;2023-04-06T11:40:12;21.85;;;12.15;;
21128;SDS011;10722;51.910;8.352;2023-04-06T11:42:57;24.00;;;12.82;;
21128;SDS011;10722;51.910;8.352;2023-04-06T11:45:43;21.33;;;11.30;;
21128;SDS011;10722;51.910;8.352;2023-04-06T11:48:28;23.38;;;11.07;;
21128;SDS011;10722;51.910;8.352;2023-04-06T11:51:21;22.55;;;11.85;;
21128;SDS011;10722;51.910;8.352;2023-04-06T11:54:07;20.55;;;12.05;;
21128;SDS011;10722;51.910;8.352;2023-04-06T11:56:52;22.15;;;11.95;;
21128;SDS011;10722;51.910;8.352;2023-04-06T11:59:37;23.08;;;12.88;;
21128;SDS011;10722;51.910;8.352;2023-04-06T12:02:23;22.30;;;12.65;;
21128;SDS011;10722;51.910;8.352;2023-04-06T12:05:08;23.15;;;12.00;;
21128;SDS011;10722;51.910;8.352;2023-04-06T12:07:54;21.50;;;11.02;;
21128;SDS011;10722;51.910;8.352;2023-04-06T12:10:39;22.38;;;10.90;;
21128;SDS011;10722;51.910;8.352;2023-04-06T12:13:28;21.92;;;10.93;;
21128;SDS011;10722;51.910;8.352;2023-04-06T12:16:13;22.15;;;12.18;;
21128;SDS011;10722;51.910;8.352;2023-04-06T12:18:59;23.63;;;12.20;;
21128;SDS011;10722;51.910;8.352;2023-04-06T12:21:44;20.58;;;11.57;;
21128;SDS011;10722;51.910;8.352;2023-04-06T12:24:29;21.58;;;12.40;;
21128;SDS011;10722;51.910;8.352;2023-04-06T12:27:15;21.70;;;11.27;;
21128;SDS011;10722;51.910;8.352;2023-04-06T12:30:00;22.33;;;11.02;;
21128;SDS011;10722;51.910;8.352;2023-04-06T12:32:46;19.73;;;11.02;;
21128;SDS011;10722;51.910;8.352;2023-04-06T12:35:34;20.83;;;10.60;;
21128;SDS011;10722;51.910;8.352;2023-04-06T12:38:21;20.75;;;10.27;;
21128;SDS011;10722;51.910;8.352;2023-04-06T12:41:07;20.60;;;10.85;;
21128;SDS011;10722;51.910;8.352;2023-04-06T12:43:52;19.38;;;10.27;;
21128;SDS011;10722;51.910;8.352;2023-04-06T12:46:38;20.33;;;10.02;;
21128;SDS011;10722;51.910;8.352;2023-04-06T12:49:23;20.98;;;10.95;;
21128;SDS011;10722;51.910;8.352;2023-04-06T12:52:08;19.55;;;10.27;;
21128;SDS011;10722;51.910;8.352;2023-04-06T12:54:54;21.60;;;11.15;;
21128;SDS011;10722;51.910;8.352;2023-04-06T12:57:40;19.75;;;10.93;;
21128;SDS011;10722;51.910;8.352;2023-04-06T13:00:25;20.20;;;11.68;;
21128;SDS011;10722;51.910;8.352;2023-04-06T13:03:11;21.52;;;11.32;;
21128;SDS011;10722;51.910;8.352;2023-04-06T13:05:57;21.70;;;12.10;;
21128;SDS011;10722;51.910;8.352;2023-04-06T13:08:44;23.08;;;11.63;;
21128;SDS011;10722;51.910;8.352;2023-04-06T13:11:29;22.52;;;11.73;;
21128;SDS011;10722;51.910;8.352;2023-04-06T13:14:15;23.98;;;12.30;;
21128;SDS011;10722;51.910;8.352;2023-04-06T13:17:00;20.55;;;11.63;;
21128;SDS011;10722;51.910;8.352;2023-04-06T13:19:45;20.67;;;11.68;;
21128;SDS011;10722;51.910;8.352;2023-04-06T13:22:31;21.80;;;12.57;;
21128;SDS011;10722;51.910;8.352;2023-04-06T13:25:16;22.35;;;13.00;;
21128;SDS011;10722;51.910;8.352;2023-04-06T13:28:01;23.85;;;12.95;;
21128;SDS011;10722;51.910;8.352;2023-04-06T13:30:47;23.83;;;12.55;;
21128;SDS011;10722;51.910;8.352;2023-04-06T13:33:33;21.70;;;12.63;;
21128;SDS011;10722;51.910;8.352;2023-04-06T13:36:18;23.23;;;12.82;;
21128;SDS011;10722;51.910;8.352;2023-04-06T13:39:04;23.80;;;13.27;;
21128;SDS011;10722;51.910;8.352;2023-04-06T13:41:49;25.05;;;12.73;;
21128;SDS011;10722;51.910;8.352;2023-04-06T13:44:34;23.73;;;13.70;;
21128;SDS011;10722;51.910;8.352;2023-04-06T13:47:25;23.73;;;13.15;;
21128;SDS011;10722;51.910;8.352;2023-04-06T13:50:11;23.98;;;13.25;;
21128;SDS011;10722;51.910;8.352;2023-04-06T13:52:57;25.90;;;14.20;;
21128;SDS011;10722;51.910;8.352;2023-04-06T13:55:42;23.90;;;13.75;;
21128;SDS011;10722;51.910;8.352;2023-04-06T13:58:28;22.73;;;13.10;;
21128;SDS011;10722;51.910;8.352;2023-04-06T14:01:13;24.42;;;13.32;;
21128;SDS011;10722;51.910;8.352;2023-04-06T14:03:58;25.80;;;14.32;;
21128;SDS011;10722;51.910;8.352;2023-04-06T14:06:44;24.45;;;14.05;;
21128;SDS011;10722;51.910;8.352;2023-04-06T14:09:30;25.27;;;13.90;;
21128;SDS011;10722;51.910;8.352;2023-04-06T14:12:15;23.48;;;14.73;;
21128;SDS011;10722;51.910;8.352;2023-04-06T14:15:01;25.42;;;14.38;;
21128;SDS011;10722;51.910;8.352;2023-04-06T14:17:46;25.08;;;13.80;;
21128;SDS011;10722;51.910;8.352;2023-04-06T14:20:32;28.52;;;14.40;;
21128;SDS011;10722;51.910;8.352;2023-04-06T14:23:17;25.42;;;14.55;;
21128;SDS011;10722;51.910;8.352;2023-04-06T14:26:07;26.25;;;14.02;;
21128;SDS011;10722;51.910;8.352;2023-04-06T14:28:52;25.65;;;15.05;;
21128;SDS011;10722;51.910;8.352;2023-04-06T14:31:37;27.58;;;15.10;;
21128;SDS011;10722;51.910;8.352;2023-04-06T14:34:23;30.13;;;15.60;;
21128;SDS011;10722;51.910;8.352;2023-04-06T14:37:08;28.13;;;15.63;;
21128;SDS011;10722;51.910;8.352;2023-04-06T14:39:54;29.20;;;15.60;;
21128;SDS011;10722;51.910;8.352;2023-04-06T14:42:39;28.20;;;15.70;;
21128;SDS011;10722;51.910;8.352;2023-04-06T14:45:24;27.80;;;14.55;;
21128;SDS011;10722;51.910;8.352;2023-04-06T14:48:10;27.83;;;15.77;;
21128;SDS011;10722;51.910;8.352;2023-04-06T14:50:55;28.55;;;15.20;;
21128;SDS011;10722;51.910;8.352;2023-04-06T14:53:41;28.92;;;14.48;;
21128;SDS011;10722;51.910;8.352;2023-04-06T14:56:27;26.38;;;14.30;;
21128;SDS011;10722;51.910;8.352;2023-04-06T14:59:12;25.15;;;14.65;;
21128;SDS011;10722;51.910;8.352;2023-04-06T15:01:58;26.98;;;15.93;;
21128;SDS011;10722;51.910;8.352;2023-04-06T15:04:43;30.48;;;15.18;;
21128;SDS011;10722;51.910;8.352;2023-04-06T15:07:28;26.63;;;13.45;;
21128;SDS011;10722;51.910;8.352;2023-04-06T15:10:14;25.38;;;12.73;;
21128;SDS011;10722;51.910;8.352;2023-04-06T15:12:59;25.30;;;13.98;;
21128;SDS011;10722;51.910;8.352;2023-04-06T15:15:45;25.00;;;13.38;;
21128;SDS011;10722;51.910;8.352;2023-04-06T15:18:30;24.60;;;13.98;;
21128;SDS011;10722;51.910;8.352;2023-04-06T15:21:16;23.75;;;13.60;;
21128;SDS011;10722;51.910;8.352;2023-04-06T15:24:01;23.60;;;13.25;;
21128;SDS011;10722;51.910;8.352;2023-04-06T15:26:47;25.48;;;14.13;;
21128;SDS011;10722;51.910;8.352;2023-04-06T15:29:32;29.80;;;14.05;;
21128;SDS011;10722;51.910;8.352;2023-04-06T15:32:17;27.27;;;14.95;;
21128;SDS011;10722;51.910;8.352;2023-04-06T15:35:09;25.80;;;14.75;;
21128;SDS011;10722;51.910;8.352;2023-04-06T15:37:56;28.75;;;14.90;;
21128;SDS011;10722;51.910;8.352;2023-04-06T15:40:43;27.25;;;15.25;;
21128;SDS011;10722;51.910;8.352;2023-04-06T15:43:33;25.02;;;13.43;;
21128;SDS011;10722;51.910;8.352;2023-04-06T15:46:18;25.58;;;13.75;;
21128;SDS011;10722;51.910;8.352;2023-04-06T15:49:04;25.92;;;13.77;;
21128;SDS011;10722;51.910;8.352;2023-04-06T15:51:49;26.13;;;12.60;;
21128;SDS011;10722;51.910;8.352;2023-04-06T15:54:35;22.83;;;11.98;;
21128;SDS011;10722;51.910;8.352;2023-04-06T15:57:21;21.30;;;11.77;;
21128;SDS011;10722;51.910;8.352;2023-04-06T16:00:06;25.52;;;12.20;;
21128;SDS011;10722;51.910;8.352;2023-04-06T16:02:51;26.42;;;13.30;;
21128;SDS011;10722;51.910;8.352;2023-04-06T16:05:36;29.33;;;13.48;;
21128;SDS011;10722;51.910;8.352;2023-04-06T16:08:42;24.58;;;12.98;;
21128;SDS011;10722;51.910;8.352;2023-04-06T16:11:27;22.77;;;11.73;;
21128;SDS011;10722;51.910;8.352;2023-04-06T16:14:12;24.25;;;12.65;;
21128;SDS011;10722;51.910;8.352;2023-04-06T16:16:57;23.67;;;12.45;;
21128;SDS011;10722;51.910;8.352;2023-04-06T16:19:43;22.63;;;12.60;;
21128;SDS011;10722;51.910;8.352;2023-04-06T16:22:28;24.25;;;12.05;;
21128;SDS011;10722;51.910;8.352;2023-04-06T16:25:14;23.60;;;12.63;;